Time;durP1;ratioP1;P1;durP2;ratioP2;P2;SDS_P1;SDS_P2;PMS_P1;PMS_P2;Temp;Humidity;BMP_temperature;BMP_pressure;BME280_temperature;BME280_humidity;BME280_pressure;Samples;Min_cycle;Max_cycle;Signal;HPM_P1;HPM_P2
2023/08/18 00:01:38;;;;;;;11.95;3.45;;;29.80;99.90;;;;;;4973671;28;20129;-53
2023/08/18 00:04:04;;;;;;;11.30;4.10;;;29.80;99.90;;;;;;4971884;28;20103;-53
2023/08/18 00:06:30;;;;;;;10.68;4.15;;;29.80;99.90;;;;;;4973175;28;20038;-53
2023/08/18 00:08:55;;;;;;;12.32;4.15;;;29.80;99.90;;;;;;4973099;28;20482;-53
2023/08/18 00:11:21;;;;;;;13.95;4.00;;;29.80;99.90;;;;;;4971974;28;20038;-53
2023/08/18 00:13:47;;;;;;;11.90;3.67;;;29.70;99.90;;;;;;4973339;28;20019;-53
2023/08/18 00:16:13;;;;;;;16.80;4.10;;;29.70;99.90;;;;;;4972896;28;20042;-53
2023/08/18 00:18:38;;;;;;;10.60;3.63;;;29.70;99.90;;;;;;4973044;28;20030;-54
2023/08/18 00:21:04;;;;;;;12.30;3.97;;;29.60;99.90;;;;;;4972929;28;20031;-53
2023/08/18 00:23:30;;;;;;;15.73;3.90;;;29.60;99.90;;;;;;4973022;28;20043;-53
2023/08/18 00:25:55;;;;;;;21.88;5.18;;;29.60;99.90;;;;;;4972841;28;20027;-53
2023/08/18 00:28:21;;;;;;;9.90;3.55;;;29.60;99.90;;;;;;4973326;28;20110;-53
2023/08/18 00:30:47;;;;;;;13.10;3.97;;;29.60;99.90;;;;;;4973103;28;20119;-53
2023/08/18 00:33:13;;;;;;;9.15;3.58;;;29.60;99.90;;;;;;4972905;28;20030;-53
2023/08/18 00:35:38;;;;;;;13.07;3.42;;;29.60;99.90;;;;;;4972449;28;20106;-53
2023/08/18 00:38:04;;;;;;;9.50;3.45;;;29.60;99.90;;;;;;4972787;28;20034;-53
2023/08/18 00:40:30;;;;;;;12.52;3.50;;;29.50;99.90;;;;;;4972622;28;20398;-53
2023/08/18 00:42:56;;;;;;;13.65;3.45;;;29.50;99.90;;;;;;4972713;28;20102;-53
2023/08/18 00:45:22;;;;;;;13.95;4.03;;;29.40;99.90;;;;;;4971873;28;20027;-53
2023/08/18 00:47:47;;;;;;;14.02;3.60;;;29.40;99.90;;;;;;4972985;28;20394;-54
2023/08/18 00:50:15;;;;;;;9.02;3.67;;;29.40;99.90;;;;;;4972817;28;20082;-52
2023/08/18 00:52:43;;;;;;;11.80;3.35;;;29.40;99.90;;;;;;4971462;28;20479;-53
2023/08/18 00:55:10;;;;;;;15.05;4.22;;;29.40;99.90;;;;;;4987692;28;20391;-53
2023/08/18 00:57:36;;;;;;;15.82;3.45;;;29.40;99.90;;;;;;4972751;28;20098;-52
2023/08/18 01:00:03;;;;;;;19.52;3.90;;;29.40;99.90;;;;;;4972637;28;20107;-52
2023/08/18 01:02:30;;;;;;;12.65;3.95;;;29.30;99.90;;;;;;4972761;28;20047;-52
2023/08/18 01:05:02;;;;;;;18.98;4.43;;;29.30;99.90;;;;;;4972574;28;20030;-53
2023/08/18 01:07:28;;;;;;;13.05;4.40;;;29.30;99.90;;;;;;4971281;28;20034;-51
2023/08/18 01:09:55;;;;;;;14.95;3.58;;;29.20;99.90;;;;;;4972727;28;20027;-51
2023/08/18 01:12:29;;;;;;;11.43;3.85;;;29.20;99.90;;;;;;4972740;28;20019;-51
2023/08/18 01:14:58;;;;;;;18.52;4.00;;;29.20;99.90;;;;;;4972529;28;20034;-52
2023/08/18 01:17:43;;;;;;;15.52;4.25;;;29.20;99.90;;;;;;4972739;28;20479;-53
2023/08/18 01:20:10;;;;;;;14.10;4.05;;;29.10;99.90;;;;;;4972507;28;20031;-53
2023/08/18 01:22:36;;;;;;;11.80;3.53;;;29.10;99.90;;;;;;4972474;28;20034;-52
2023/08/18 01:25:03;;;;;;;11.07;3.63;;;29.00;99.90;;;;;;4972519;28;20030;-52
2023/08/18 01:27:32;;;;;;;11.82;3.58;;;29.00;99.90;;;;;;4972461;28;20027;-52
2023/08/18 01:29:59;;;;;;;13.60;3.25;;;29.00;99.90;;;;;;4972264;28;20136;-52
2023/08/18 01:32:33;;;;;;;15.73;3.75;;;28.90;99.90;;;;;;4971388;28;20018;-52
2023/08/18 01:35:02;;;;;;;14.18;3.58;;;28.90;99.90;;;;;;4972038;28;20121;-52
2023/08/18 01:37:30;;;;;;;14.70;3.42;;;28.90;99.90;;;;;;4972423;28;20085;-52
2023/08/18 01:39:58;;;;;;;14.52;3.65;;;28.90;99.90;;;;;;4972289;28;20023;-52
2023/08/18 01:42:25;;;;;;;18.80;3.97;;;28.90;99.90;;;;;;4972434;28;20391;-52
2023/08/18 01:44:51;;;;;;;16.65;3.33;;;28.80;99.90;;;;;;4972468;28;20031;-52
2023/08/18 01:47:17;;;;;;;13.60;3.47;;;28.80;99.90;;;;;;4974169;28;20444;-52
2023/08/18 01:49:43;;;;;;;7.95;3.00;;;28.80;99.90;;;;;;4975741;28;20026;-52
2023/08/18 01:52:09;;;;;;;12.90;3.10;;;28.70;99.90;;;;;;4975620;28;20105;-52
2023/08/18 01:54:35;;;;;;;8.68;2.42;;;28.70;99.90;;;;;;4975563;28;20041;-52
2023/08/18 01:57:00;;;;;;;13.80;4.20;;;28.60;99.90;;;;;;4975359;28;20109;-52
2023/08/18 01:59:26;;;;;;;12.50;3.22;;;28.60;99.90;;;;;;4975736;28;20106;-52
2023/08/18 02:01:52;;;;;;;8.90;2.42;;;28.60;99.90;;;;;;4987517;23;20062;-46
2023/08/18 02:04:17;;;;;;;13.85;3.28;;;28.50;99.90;;;;;;4975757;28;20027;-46
2023/08/18 02:06:43;;;;;;;15.75;3.33;;;28.50;99.90;;;;;;4975701;28;20045;-46
2023/08/18 02:09:09;;;;;;;10.40;2.83;;;28.40;99.90;;;;;;4975601;28;20369;-47
2023/08/18 02:11:35;;;;;;;11.95;3.13;;;28.40;99.90;;;;;;4975629;28;20018;-46
2023/08/18 02:14:00;;;;;;;11.55;3.05;;;28.40;99.90;;;;;;4974415;28;20030;-45
2023/08/18 02:16:26;;;;;;;19.13;4.53;;;28.40;99.90;;;;;;4975779;28;20451;-46
2023/08/18 02:18:52;;;;;;;14.50;3.10;;;28.30;99.90;;;;;;4975291;28;20399;-46
2023/08/18 02:21:18;;;;;;;11.52;3.28;;;28.30;99.90;;;;;;4975323;28;20039;-46
2023/08/18 02:23:43;;;;;;;15.00;3.65;;;28.30;99.90;;;;;;4975331;28;20027;-46
2023/08/18 02:26:09;;;;;;;9.13;3.63;;;28.20;99.90;;;;;;4975333;28;20050;-47
2023/08/18 02:28:35;;;;;;;13.13;3.45;;;28.10;99.90;;;;;;4975181;28;20030;-47
2023/08/18 02:31:05;;;;;;;12.57;2.90;;;28.10;99.90;;;;;;4973908;28;20357;-46
2023/08/18 02:33:33;;;;;;;12.10;3.40;;;28.20;99.90;;;;;;4975166;28;20027;-46
2023/08/18 02:35:59;;;;;;;11.82;3.85;;;28.10;99.90;;;;;;4975502;28;20026;-46
2023/08/18 02:38:26;;;;;;;13.45;3.22;;;28.10;99.90;;;;;;4975389;28;20058;-46
2023/08/18 02:40:52;;;;;;;9.38;2.90;;;28.20;99.90;;;;;;4974960;28;20031;-46
2023/08/18 02:43:18;;;;;;;17.63;4.47;;;28.10;99.90;;;;;;4974831;28;20309;-46
2023/08/18 02:45:44;;;;;;;16.80;4.20;;;28.20;99.90;;;;;;4974921;28;20027;-46
2023/08/18 02:48:13;;;;;;;12.13;3.60;;;28.20;99.90;;;;;;4989827;28;20031;-46
2023/08/18 02:50:40;;;;;;;10.27;3.03;;;28.20;99.90;;;;;;4975021;28;20037;-46
2023/08/18 02:53:06;;;;;;;6.85;2.80;;;28.20;99.90;;;;;;4974699;28;20033;-46
2023/08/18 02:55:34;;;;;;;10.17;3.70;;;28.30;99.90;;;;;;4974873;28;20419;-46
2023/08/18 02:58:00;;;;;;;;;;;28.30;99.90;;;;;;4975066;28;20014;-48
2023/08/18 03:00:26;;;;;;;12.53;3.77;;;28.30;99.90;;;;;;4988040;23;19913;-51
2023/08/18 03:02:52;;;;;;;6.88;2.97;;;28.30;99.90;;;;;;4993730;28;20402;-52
2023/08/18 03:05:18;;;;;;;10.65;2.25;;;28.20;99.90;;;;;;4993652;28;20026;-52
2023/08/18 03:07:44;;;;;;;9.80;3.13;;;28.30;99.90;;;;;;4994101;28;20033;-52
2023/08/18 03:10:10;;;;;;;8.13;3.13;;;28.20;99.90;;;;;;4993651;28;20026;-52
2023/08/18 03:12:36;;;;;;;8.75;2.90;;;28.30;99.90;;;;;;4993475;28;20080;-53
2023/08/18 03:15:02;;;;;;;7.22;2.33;;;28.20;99.90;;;;;;4993498;28;20084;-52
2023/08/18 03:17:27;;;;;;;10.35;2.47;;;28.20;99.90;;;;;;4993660;28;20085;-52
2023/08/18 03:19:53;;;;;;;9.77;2.83;;;28.20;99.90;;;;;;4992045;28;20096;-53
2023/08/18 03:22:19;;;;;;;10.85;2.80;;;28.20;99.90;;;;;;4993279;28;20442;-52
2023/08/18 03:24:44;;;;;;;12.10;2.65;;;28.30;99.90;;;;;;4993340;28;20363;-53
2023/08/18 03:27:10;;;;;;;9.02;2.78;;;28.20;99.90;;;;;;4991965;28;20080;-52
2023/08/18 03:29:36;;;;;;;9.68;2.75;;;28.20;99.90;;;;;;4993195;28;20057;-52
2023/08/18 03:32:02;;;;;;;13.25;2.50;;;28.20;99.90;;;;;;4993300;28;20091;-52
2023/08/18 03:34:28;;;;;;;10.10;2.75;;;28.20;99.90;;;;;;4992066;28;20050;-52
2023/08/18 03:36:53;;;;;;;7.45;2.78;;;28.30;99.90;;;;;;4993115;28;20038;-52
2023/08/18 03:39:19;;;;;;;13.02;3.25;;;28.30;99.90;;;;;;4992955;28;20030;-52
2023/08/18 03:41:45;;;;;;;8.73;2.65;;;28.30;99.90;;;;;;4992898;28;20034;-52
2023/08/18 03:44:10;;;;;;;13.38;2.83;;;28.20;99.90;;;;;;4993067;28;20050;-52
2023/08/18 03:46:36;;;;;;;7.93;2.45;;;28.30;99.90;;;;;;4992302;28;20058;-52
2023/08/18 03:49:05;;;;;;;17.88;3.40;;;28.30;99.90;;;;;;4991993;28;20038;-52
2023/08/18 03:51:34;;;;;;;10.25;2.80;;;28.20;99.90;;;;;;5007723;28;21057;-52
2023/08/18 03:53:59;;;;;;;8.57;2.15;;;28.20;99.90;;;;;;5007798;28;20069;-52
2023/08/18 03:56:25;;;;;;;9.27;2.70;;;28.20;99.90;;;;;;5007221;28;20034;-52
2023/08/18 03:58:51;;;;;;;12.88;2.70;;;28.20;99.90;;;;;;4992348;28;20022;-52
2023/08/18 04:01:17;;;;;;;20.58;3.85;;;28.10;99.90;;;;;;4991387;28;20046;-52
2023/08/18 04:03:43;;;;;;;13.90;2.88;;;28.10;99.90;;;;;;4990772;28;20018;-52
2023/08/18 04:06:12;;;;;;;13.73;2.97;;;28.10;99.90;;;;;;4989768;28;20018;-53
2023/08/18 04:08:43;;;;;;;8.25;2.75;;;28.10;99.90;;;;;;4989043;28;20022;-52
2023/08/18 04:11:10;;;;;;;9.00;2.05;;;28.10;99.90;;;;;;4991976;28;20022;-52
2023/08/18 04:13:36;;;;;;;10.65;3.00;;;28.10;99.90;;;;;;4992015;28;20379;-52
2023/08/18 04:16:02;;;;;;;4.55;2.40;;;28.10;99.90;;;;;;4992475;28;20026;-52
2023/08/18 04:18:29;;;;;;;9.80;2.58;;;28.10;99.90;;;;;;4992331;28;20049;-52
2023/08/18 04:20:55;;;;;;;8.20;2.35;;;28.00;99.90;;;;;;4992293;28;20030;-51
2023/08/18 04:23:21;;;;;;;12.02;3.15;;;28.10;99.90;;;;;;4991874;28;20403;-53
2023/08/18 04:25:47;;;;;;;19.77;3.70;;;28.00;99.90;;;;;;4992248;28;20015;-53
2023/08/18 04:28:12;;;;;;;13.82;2.97;;;28.00;99.90;;;;;;4991911;28;20025;-52
2023/08/18 04:30:38;;;;;;;7.97;2.45;;;28.00;99.90;;;;;;4991860;28;20382;-52
2023/08/18 04:33:04;;;;;;;9.13;2.55;;;28.00;99.90;;;;;;4990752;28;20371;-52
2023/08/18 04:35:30;;;;;;;7.93;2.50;;;28.00;99.90;;;;;;4990715;28;20056;-52
2023/08/18 04:37:56;;;;;;;8.70;2.85;;;28.00;99.90;;;;;;4991711;28;20026;-52
2023/08/18 04:40:23;;;;;;;18.00;3.00;;;27.90;99.90;;;;;;4989912;28;20553;-52
2023/08/18 04:42:49;;;;;;;16.50;3.40;;;27.90;99.90;;;;;;4992179;28;20489;-52
2023/08/18 04:45:15;;;;;;;14.98;4.00;;;27.90;99.90;;;;;;4990418;28;20037;-52
2023/08/18 04:47:41;;;;;;;10.68;3.15;;;27.90;99.90;;;;;;4992105;28;20038;-51
2023/08/18 04:50:07;;;;;;;11.07;2.85;;;27.80;99.90;;;;;;4991869;28;20486;-52
2023/08/18 04:52:33;;;;;;;12.57;3.20;;;27.70;99.90;;;;;;4992284;28;20042;-51
2023/08/18 04:54:58;;;;;;;12.15;2.95;;;27.70;99.90;;;;;;4990631;28;20487;-51
2023/08/18 04:57:24;;;;;;;12.70;2.78;;;27.60;99.90;;;;;;4991693;28;20495;-51
2023/08/18 04:59:50;;;;;;;9.32;3.05;;;27.50;99.90;;;;;;4991565;28;20026;-50
2023/08/18 05:02:16;;;;;;;15.68;3.50;;;27.50;99.90;;;;;;4989213;28;20578;-51
2023/08/18 05:04:41;;;;;;;10.05;2.88;;;27.40;99.90;;;;;;4990710;28;20081;-50
2023/08/18 05:07:07;;;;;;;6.88;2.55;;;27.30;99.90;;;;;;4989957;28;20049;-50
2023/08/18 05:09:34;;;;;;;22.90;3.83;;;27.30;99.90;;;;;;4991657;28;20037;-50
2023/08/18 05:12:00;;;;;;;13.93;2.70;;;27.20;99.90;;;;;;4991341;28;20033;-50
2023/08/18 05:14:26;;;;;;;13.25;3.97;;;27.20;99.90;;;;;;4991969;28;20256;-51
2023/08/18 05:16:51;;;;;;;8.38;2.80;;;27.10;99.90;;;;;;4991795;28;20153;-51
2023/08/18 05:19:17;;;;;;;16.45;4.78;;;27.10;99.90;;;;;;4991823;28;20050;-50
2023/08/18 05:21:43;;;;;;;11.88;3.88;;;27.10;99.90;;;;;;4993301;28;20031;-50
2023/08/18 05:24:09;;;;;;;10.93;2.90;;;27.10;99.90;;;;;;4995627;28;20037;-50
2023/08/18 05:26:34;;;;;;;18.27;3.33;;;27.10;99.90;;;;;;4995815;28;20023;-50
2023/08/18 05:29:00;;;;;;;12.85;3.75;;;27.00;99.90;;;;;;4994008;28;20030;-51
2023/08/18 05:31:26;;;;;;;9.35;2.90;;;27.00;99.90;;;;;;4995321;28;20031;-50
2023/08/18 05:33:52;;;;;;;10.52;3.00;;;27.00;99.90;;;;;;4995471;28;20023;-51
2023/08/18 05:36:18;;;;;;;11.77;2.70;;;26.90;99.90;;;;;;4995308;28;20077;-50
2023/08/18 05:38:44;;;;;;;13.70;4.80;;;26.90;99.90;;;;;;4995335;28;20113;-50
2023/08/18 05:41:13;;;;;;;15.20;4.07;;;26.80;99.90;;;;;;4995277;28;20121;-50
2023/08/18 05:43:39;;;;;;;12.18;3.40;;;26.90;99.90;;;;;;4995218;28;20454;-51
2023/08/18 05:46:06;;;;;;;7.05;2.60;;;26.80;99.90;;;;;;4994054;28;20052;-50
2023/08/18 05:48:32;;;;;;;9.82;2.70;;;26.80;99.90;;;;;;4995210;28;20026;-51
2023/08/18 05:51:01;;;;;;;9.48;3.63;;;26.80;99.90;;;;;;4994894;28;20027;-51
2023/08/18 05:53:30;;;;;;;8.35;2.47;;;26.80;99.90;;;;;;4993776;28;20089;-51
2023/08/18 05:55:56;;;;;;;9.52;3.25;;;26.80;99.90;;;;;;4994931;28;20077;-50
2023/08/18 05:58:21;;;;;;;12.98;3.63;;;26.80;99.90;;;;;;4993737;28;20026;-50
2023/08/18 06:00:50;;;;;;;12.45;2.85;;;26.70;99.90;;;;;;4994669;28;20390;-51
2023/08/18 06:03:19;;;;;;;8.88;2.58;;;26.70;99.90;;;;;;4994610;28;20391;-50
2023/08/18 06:05:49;;;;;;;7.28;2.75;;;26.70;99.90;;;;;;4993538;28;20104;-50
2023/08/18 06:08:15;;;;;;;7.90;3.10;;;26.70;99.90;;;;;;4993452;28;20030;-50
2023/08/18 06:10:41;;;;;;;15.25;4.07;;;26.70;99.90;;;;;;4993472;28;20023;-50
2023/08/18 06:13:07;;;;;;;9.40;2.78;;;26.70;99.90;;;;;;4993702;28;20570;-50
2023/08/18 06:15:33;;;;;;;11.65;2.67;;;26.80;99.90;;;;;;4994586;28;20041;-51
2023/08/18 06:17:59;;;;;;;9.43;2.92;;;26.70;99.90;;;;;;4994603;28;20026;-51
2023/08/18 06:20:25;;;;;;;11.20;2.97;;;26.80;99.90;;;;;;4994411;28;20014;-50
2023/08/18 06:22:50;;;;;;;10.65;3.05;;;26.80;99.90;;;;;;4994581;28;20062;-50
2023/08/18 06:25:16;;;;;;;7.55;2.40;;;26.80;99.90;;;;;;4994493;28;20019;-50
2023/08/18 06:27:42;;;;;;;9.30;2.80;;;26.80;99.90;;;;;;4994394;28;20500;-49
2023/08/18 06:30:08;;;;;;;7.50;2.72;;;26.80;99.90;;;;;;4994524;28;20041;-49
2023/08/18 06:32:34;;;;;;;10.35;3.03;;;26.80;99.90;;;;;;4993587;28;20544;-50
2023/08/18 06:34:59;;;;;;;7.47;3.65;;;26.80;99.90;;;;;;4994315;28;20030;-50
2023/08/18 06:37:26;;;;;;;11.02;2.78;;;26.90;99.90;;;;;;4994171;28;20103;-50
2023/08/18 06:39:51;;;;;;;12.02;3.05;;;26.90;99.90;;;;;;4994135;28;20105;-50
2023/08/18 06:42:17;;;;;;;14.35;3.35;;;26.80;99.90;;;;;;4994043;28;20121;-50
2023/08/18 06:44:43;;;;;;;11.52;3.00;;;26.90;99.90;;;;;;4994092;28;20023;-50
2023/08/18 06:47:09;;;;;;;11.20;3.45;;;26.90;99.90;;;;;;4993054;28;20106;-50
2023/08/18 06:49:34;;;;;;;9.38;2.30;;;26.90;99.90;;;;;;4994089;28;20030;-50
2023/08/18 06:52:00;;;;;;;11.93;2.85;;;26.90;99.90;;;;;;4993884;28;20030;-49
2023/08/18 06:54:26;;;;;;;13.00;2.95;;;26.90;99.90;;;;;;4993819;28;20041;-51
2023/08/18 06:56:52;;;;;;;10.63;2.40;;;26.90;99.90;;;;;;4993889;28;20030;-50
2023/08/18 06:59:17;;;;;;;11.13;2.65;;;26.90;99.90;;;;;;4993788;28;20165;-50
2023/08/18 07:01:43;;;;;;;8.82;3.03;;;26.90;99.90;;;;;;4993539;28;20535;-50
2023/08/18 07:04:10;;;;;;;11.60;2.90;;;26.90;99.90;;;;;;4993986;28;20116;-50
2023/08/18 07:06:36;;;;;;;12.82;3.42;;;26.90;99.90;;;;;;4992234;28;20483;-50
2023/08/18 07:09:03;;;;;;;10.35;2.75;;;27.00;99.90;;;;;;4993563;28;20030;-50
2023/08/18 07:11:29;;;;;;;9.20;2.20;;;27.00;99.90;;;;;;4993578;28;20022;-51
2023/08/18 07:13:55;;;;;;;9.00;3.03;;;27.10;99.90;;;;;;4993486;28;20050;-50
2023/08/18 07:16:21;;;;;;;11.80;3.03;;;27.10;99.90;;;;;;4993531;28;20026;-50
2023/08/18 07:18:47;;;;;;;14.40;2.60;;;27.10;99.90;;;;;;4992339;28;20030;-51
2023/08/18 07:21:12;;;;;;;9.82;2.83;;;27.20;99.90;;;;;;4992986;28;20034;-50
2023/08/18 07:23:38;;;;;;;10.15;3.50;;;27.20;99.90;;;;;;4993124;28;20026;-51
2023/08/18 07:26:04;;;;;;;7.45;2.33;;;27.20;99.90;;;;;;4993132;28;20080;-52
2023/08/18 07:28:29;;;;;;;9.30;2.38;;;27.20;99.90;;;;;;4993130;28;20041;-51
2023/08/18 07:31:02;;;;;;;10.48;2.63;;;27.20;99.90;;;;;;4992967;28;20100;-50
2023/08/18 07:33:28;;;;;;;12.55;2.75;;;27.30;99.90;;;;;;4991673;28;20038;-51
2023/08/18 07:35:54;;;;;;;17.45;2.35;;;27.30;99.90;;;;;;4992964;28;20030;-50
2023/08/18 07:38:19;;;;;;;8.50;2.50;;;27.30;99.90;;;;;;4993214;28;20037;-50
2023/08/18 07:40:45;;;;;;;16.90;3.30;;;27.40;99.90;;;;;;4993114;28;20031;-50
2023/08/18 07:43:11;;;;;;;18.35;3.67;;;27.40;99.90;;;;;;4992958;28;20031;-50
2023/08/18 07:45:37;;;;;;;11.18;3.15;;;27.40;99.90;;;;;;4992161;28;20026;-51
2023/08/18 07:48:03;;;;;;;12.68;3.35;;;27.50;99.90;;;;;;4992954;28;20029;-51
2023/08/18 07:50:29;;;;;;;19.27;5.05;;;27.50;99.90;;;;;;4993087;28;20022;-50
2023/08/18 07:52:55;;;;;;;15.77;4.03;;;27.50;99.90;;;;;;4992803;28;20027;-51
2023/08/18 07:55:22;;;;;;;10.48;2.70;;;27.60;99.90;;;;;;4992751;28;20187;-51
2023/08/18 07:57:48;;;;;;;8.68;2.50;;;27.60;99.90;;;;;;4992881;28;20089;-59
2023/08/18 08:00:16;;;;;;;8.57;3.10;;;27.70;99.90;;;;;;4993033;28;20026;-55
2023/08/18 08:02:46;;;;;;;12.15;2.80;;;27.70;99.90;;;;;;4992651;28;20080;-51
2023/08/18 08:05:17;;;;;;;8.75;2.83;;;27.70;99.90;;;;;;4992847;28;20106;-50
2023/08/18 08:07:43;;;;;;;11.10;2.63;;;27.80;99.90;;;;;;4992803;28;20028;-51
2023/08/18 08:10:09;;;;;;;10.32;2.15;;;27.80;99.90;;;;;;4992469;28;20510;-51
2023/08/18 08:12:38;;;;;;;10.93;2.03;;;27.80;99.90;;;;;;4992426;28;20358;-51
2023/08/18 08:15:04;;;;;;;6.85;2.33;;;27.80;99.90;;;;;;4992694;28;20054;-51
2023/08/18 08:17:32;;;;;;;12.77;2.90;;;27.90;99.90;;;;;;4992512;28;20092;-53
2023/08/18 08:20:00;;;;;;;10.75;3.53;;;28.00;99.90;;;;;;4992365;28;20657;-51
2023/08/18 08:22:26;;;;;;;12.73;3.65;;;28.00;99.90;;;;;;4992240;28;20034;-51
2023/08/18 08:24:54;;;;;;;12.57;3.50;;;28.00;99.90;;;;;;4992276;28;20019;-51
2023/08/18 08:27:20;;;;;;;7.65;2.58;;;28.00;99.90;;;;;;4992303;28;20395;-51
2023/08/18 08:29:46;;;;;;;13.50;2.95;;;28.10;99.90;;;;;;4992357;28;20027;-51
2023/08/18 08:32:12;;;;;;;5.43;1.92;;;28.10;99.90;;;;;;4992397;28;20431;-51
2023/08/18 08:34:41;;;;;;;13.93;3.42;;;28.20;99.90;;;;;;4992423;28;20104;-51
2023/08/18 08:37:07;;;;;;;10.48;2.50;;;28.20;99.90;;;;;;4992223;28;20039;-51
2023/08/18 08:39:33;;;;;;;9.63;2.85;;;28.30;99.90;;;;;;4990987;28;20026;-51
2023/08/18 08:41:58;;;;;;;8.88;2.10;;;28.30;99.90;;;;;;4992038;28;20042;-51
2023/08/18 08:44:25;;;;;;;7.57;1.83;;;28.30;99.90;;;;;;4992322;28;20025;-51
2023/08/18 08:46:52;;;;;;;7.72;3.20;;;28.40;99.90;;;;;;4992196;28;20040;-51
2023/08/18 08:49:20;;;;;;;7.03;2.67;;;28.40;99.90;;;;;;4992474;28;20406;-51
2023/08/18 08:51:48;;;;;;;9.13;3.65;;;28.50;99.90;;;;;;4992144;28;20032;-52
2023/08/18 08:54:18;;;;;;;7.82;1.60;;;28.50;99.90;;;;;;4992120;28;20057;-50
2023/08/18 08:56:46;;;;;;;7.30;1.90;;;28.60;99.90;;;;;;4993915;28;20061;-51
2023/08/18 08:59:12;;;;;;;8.57;1.98;;;28.60;99.90;;;;;;4994765;28;20050;-51
2023/08/18 09:01:38;;;;;;;8.88;1.58;;;28.70;99.90;;;;;;4994285;28;20082;-51
2023/08/18 09:04:04;;;;;;;9.25;2.38;;;28.70;99.90;;;;;;4995859;28;20056;-51
2023/08/18 09:06:30;;;;;;;5.33;1.77;;;28.80;99.90;;;;;;4995791;28;20362;-51
2023/08/18 09:08:56;;;;;;;12.57;2.55;;;28.80;99.90;;;;;;4995912;28;20034;-51
2023/08/18 09:11:42;;;;;;;7.65;1.88;;;28.90;99.90;;;;;;4995751;28;20478;-51
2023/08/18 09:14:08;;;;;;;13.18;2.28;;;28.90;99.90;;;;;;4995744;28;20094;-51
2023/08/18 09:16:34;;;;;;;8.15;2.20;;;29.00;99.90;;;;;;4995623;28;20022;-51
2023/08/18 09:19:03;;;;;;;8.05;2.00;;;29.10;99.90;;;;;;4994309;28;20100;-51
2023/08/18 09:21:31;;;;;;;8.85;2.53;;;29.10;99.90;;;;;;4995550;28;20057;-52
2023/08/18 09:23:57;;;;;;;11.60;2.45;;;29.20;99.90;;;;;;4995475;28;20045;-52
2023/08/18 09:26:24;;;;;;;8.68;2.00;;;29.20;99.90;;;;;;4995430;28;20439;-52
2023/08/18 09:28:50;;;;;;;4.00;1.20;;;29.30;99.90;;;;;;4995640;28;20474;-51
2023/08/18 09:31:16;;;;;;;6.95;2.38;;;29.40;99.90;;;;;;4995664;28;20030;-51
2023/08/18 09:33:42;;;;;;;5.43;2.13;;;29.40;99.90;;;;;;4995357;28;20037;-51
2023/08/18 09:36:12;;;;;;;9.27;1.90;;;29.50;99.90;;;;;;4995292;28;20010;-51
2023/08/18 09:38:40;;;;;;;8.90;2.30;;;29.50;99.90;;;;;;4995222;28;20026;-51
2023/08/18 09:41:06;;;;;;;11.00;2.72;;;29.60;99.90;;;;;;4995083;28;20390;-51
2023/08/18 09:43:32;;;;;;;8.93;2.42;;;29.60;99.90;;;;;;4995195;28;20033;-51
2023/08/18 09:45:59;;;;;;;5.88;2.53;;;29.70;99.90;;;;;;4993795;28;20124;-51
2023/08/18 09:48:27;;;;;;;10.55;4.45;;;29.80;99.90;;;;;;4995055;28;20394;-51
2023/08/18 09:50:57;;;;;;;8.55;2.78;;;29.80;99.90;;;;;;4995198;28;20541;-52
2023/08/18 09:53:31;;;;;;;7.97;1.90;;;29.90;99.90;;;;;;4995067;28;20395;-51
2023/08/18 09:56:05;;;;;;;10.25;2.75;;;29.90;99.90;;;;;;4995018;28;20034;-51
2023/08/18 09:58:37;;;;;;;7.00;2.65;;;29.90;99.90;;;;;;4994735;28;20022;-51
2023/08/18 10:01:06;;;;;;;9.20;2.15;;;30.00;99.90;;;;;;4994655;28;20142;-51
2023/08/18 10:03:36;;;;;;;5.93;3.60;;;30.00;99.90;;;;;;4995021;28;20031;-52
2023/08/18 10:06:03;;;;;;;6.18;2.20;;;30.10;99.90;;;;;;4994783;28;20053;-51
2023/08/18 10:08:31;;;;;;;6.95;2.25;;;30.00;99.90;;;;;;4993772;28;20029;-51
2023/08/18 10:10:57;;;;;;;7.80;1.88;;;30.10;99.90;;;;;;4994810;28;20045;-52
2023/08/18 10:13:23;;;;;;;9.73;2.88;;;30.10;99.90;;;;;;4994749;28;20089;-51
2023/08/18 10:15:50;;;;;;;10.57;1.95;;;30.20;99.90;;;;;;4995195;28;20028;-52
2023/08/18 10:18:17;;;;;;;7.63;2.00;;;30.20;99.90;;;;;;4993419;28;20088;-51
2023/08/18 10:20:51;;;;;;;7.47;2.22;;;30.30;99.90;;;;;;4994636;28;20034;-52
2023/08/18 10:23:18;;;;;;;11.93;3.05;;;30.50;99.90;;;;;;4994647;28;20471;-52
2023/08/18 10:25:45;;;;;;;13.40;1.90;;;30.50;99.90;;;;;;4994556;28;20053;-52
2023/08/18 10:28:17;;;;;;;7.07;2.13;;;30.60;99.90;;;;;;4994579;28;20030;-51
2023/08/18 10:31:03;;;;;;;8.50;1.90;;;30.60;99.90;;;;;;4993324;28;20026;-52
2023/08/18 10:33:49;;;;;;;5.13;2.40;;;30.60;99.90;;;;;;4994504;28;20023;-52
2023/08/18 10:36:26;;;;;;;5.38;1.48;;;30.60;99.90;;;;;;4994320;28;20034;-51
2023/08/18 10:38:54;;;;;;;13.50;2.35;;;30.70;99.90;;;;;;4994509;28;20033;-51
2023/08/18 10:41:28;;;;;;;7.25;2.10;;;30.70;99.90;;;;;;4994522;28;20045;-52
2023/08/18 10:43:56;;;;;;;13.38;4.93;;;30.80;99.90;;;;;;4994409;28;20049;-51
2023/08/18 10:46:42;;;;;;;9.38;2.70;;;30.80;99.90;;;;;;4994502;28;20026;-51
2023/08/18 10:49:08;;;;;;;24.15;2.47;;;30.90;99.90;;;;;;4993967;28;20062;-51
2023/08/18 10:51:34;;;;;;;10.37;4.30;;;31.00;99.90;;;;;;4992840;28;20033;-52
2023/08/18 10:54:00;;;;;;;13.80;6.30;;;31.00;99.90;;;;;;4993968;28;20260;-52
2023/08/18 10:56:26;;;;;;;15.98;2.38;;;31.00;99.90;;;;;;4993937;28;20102;-52
2023/08/18 10:58:51;;;;;;;7.95;2.50;;;31.00;99.90;;;;;;4993035;28;20118;-51
2023/08/18 11:01:19;;;;;;;12.98;2.47;;;31.00;99.90;;;;;;4993176;28;20554;-51
2023/08/18 11:03:45;;;;;;;8.27;2.40;;;31.10;99.90;;;;;;4991783;28;20500;-51
2023/08/18 11:06:11;;;;;;;8.82;1.70;;;31.10;99.90;;;;;;4991541;28;20037;-51
2023/08/18 11:08:37;;;;;;;7.18;2.35;;;31.10;99.90;;;;;;4992279;28;20027;-51
2023/08/18 11:11:03;;;;;;;8.02;1.92;;;31.10;99.90;;;;;;4993466;28;20096;-51
2023/08/18 11:13:29;;;;;;;9.75;1.83;;;31.10;99.90;;;;;;4993520;28;20041;-51
2023/08/18 11:15:56;;;;;;;5.22;1.77;;;31.10;99.90;;;;;;4993118;28;20026;-51
2023/08/18 11:18:22;;;;;;;;;;;31.10;99.90;;;;;;4993832;28;20033;-51
2023/08/18 11:20:50;;;;;;;6.43;3.33;;;31.20;99.90;;;;;;4993318;28;19996;-51
2023/08/18 11:23:15;;;;;;;5.88;2.67;;;31.20;99.90;;;;;;4993316;28;20050;-51
2023/08/18 11:25:43;;;;;;;4.47;2.20;;;31.20;99.90;;;;;;4993152;28;20078;-51
2023/08/18 11:28:08;;;;;;;10.85;3.45;;;31.30;99.90;;;;;;4993251;28;20061;-51
2023/08/18 11:30:34;;;;;;;5.88;1.92;;;31.30;99.90;;;;;;4993486;28;20041;-51
2023/08/18 11:33:00;;;;;;;8.52;2.22;;;31.30;99.90;;;;;;4993312;28;20113;-50
2023/08/18 11:35:29;;;;;;;5.55;1.83;;;31.40;99.90;;;;;;4993253;28;20113;-54
2023/08/18 11:37:55;;;;;;;7.47;2.10;;;31.40;99.90;;;;;;4993531;28;20029;-50
2023/08/18 11:40:22;;;;;;;9.25;3.17;;;31.50;99.90;;;;;;4992973;28;20038;-51
2023/08/18 11:42:50;;;;;;;6.07;3.03;;;31.50;99.90;;;;;;4992974;28;20458;-51
2023/08/18 11:45:21;;;;;;;13.38;4.40;;;31.50;99.90;;;;;;4991905;28;20073;-52
2023/08/18 11:48:09;;;;;;;6.60;2.35;;;31.50;99.90;;;;;;4991705;28;20506;-51
2023/08/18 11:50:38;;;;;;;9.23;2.78;;;31.50;99.90;;;;;;4992603;28;20088;-52
2023/08/18 11:53:05;;;;;;;6.25;3.08;;;31.50;99.90;;;;;;4992752;28;20059;-51
2023/08/18 11:55:33;;;;;;;8.02;3.65;;;31.50;99.90;;;;;;4992846;28;20022;-51
2023/08/18 11:58:02;;;;;;;;;;;31.50;99.90;;;;;;4993380;28;20026;-51
2023/08/18 12:00:36;;;;;;;5.97;2.72;;;31.50;99.90;;;;;;4992477;28;20371;-51
2023/08/18 12:03:04;;;;;;;10.98;2.30;;;31.60;99.90;;;;;;4991431;28;20061;-51
2023/08/18 12:05:30;;;;;;;10.27;3.65;;;31.50;99.90;;;;;;4992621;28;20049;-51
2023/08/18 12:08:03;;;;;;;16.48;3.67;;;31.60;99.90;;;;;;4992784;28;20034;-52
2023/08/18 12:10:29;;;;;;;8.73;3.40;;;31.60;99.90;;;;;;4992603;28;20508;-51
2023/08/18 12:12:56;;;;;;;9.93;3.60;;;31.60;99.90;;;;;;4992812;28;20098;-51
2023/08/18 12:15:24;;;;;;;;;;;31.60;99.90;;;;;;4993048;28;20382;-51
2023/08/18 12:17:50;;;;;;;10.02;2.70;;;31.60;99.90;;;;;;4992567;28;20370;-51
2023/08/18 12:20:18;;;;;;;10.35;4.13;;;31.60;99.90;;;;;;4992475;28;20045;-51
2023/08/18 12:22:46;;;;;;;6.00;2.97;;;31.60;99.90;;;;;;4992469;28;20052;-51
2023/08/18 12:25:12;;;;;;;7.18;2.30;;;31.60;99.90;;;;;;4992447;28;20030;-51
2023/08/18 12:27:38;;;;;;;6.95;2.40;;;31.60;99.90;;;;;;4992460;28;20033;-51
2023/08/18 12:30:04;;;;;;;13.05;2.25;;;31.60;99.90;;;;;;4991829;28;20031;-51
2023/08/18 12:32:32;;;;;;;6.60;1.90;;;31.60;99.90;;;;;;4991109;28;20042;-52
2023/08/18 12:34:58;;;;;;;;;;;31.60;99.90;;;;;;4993025;28;20022;-51
2023/08/18 12:37:23;;;;;;;12.13;3.20;;;31.70;99.90;;;;;;4991118;28;19906;-52
2023/08/18 12:39:49;;;;;;;11.02;3.78;;;31.70;99.90;;;;;;4992425;28;20480;-51
2023/08/18 12:42:15;;;;;;;7.05;2.38;;;31.70;99.90;;;;;;4992077;28;20052;-51